Time;durP1;ratioP1;P1;durP2;ratioP2;P2;SDS_P1;SDS_P2;PMS_P1;PMS_P2;Temp;Humidity;BMP_temperature;BMP_pressure;BME280_temperature;BME280_humidity;BME280_pressure;Samples;Min_cycle;Max_cycle;Signal;HPM_P1;HPM_P2
2021/06/28 00:00:29;;;;;;;;;;;25.70;44.80;;;;;;1560111;75;704;-57
2021/06/28 00:02:32;;;;;;;;;;;25.70;44.80;;;;;;1555140;74;2010;-55
2021/06/28 00:04:33;;;;;;;;;;;25.70;44.90;;;;;;1554705;74;1701;-57
2021/06/28 00:06:35;;;;;;;;;;;25.70;44.80;;;;;;1562897;75;769;-55
2021/06/28 00:08:37;;;;;;;;;;;25.70;44.70;;;;;;1561258;74;845;-55
2021/06/28 00:10:39;;;;;;;;;;;25.70;44.90;;;;;;1568422;74;714;-56
2021/06/28 00:12:41;;;;;;;;;;;25.70;44.70;;;;;;1564406;74;1131;-57
2021/06/28 00:14:43;;;;;;;;;;;25.70;44.70;;;;;;1556193;75;753;-58
2021/06/28 00:16:45;;;;;;;;;;;25.70;44.80;;;;;;1554165;75;703;-55
2021/06/28 00:18:47;;;;;;;;;;;25.70;44.80;;;;;;1559643;74;1930;-55
2021/06/28 00:20:49;;;;;;;;;;;25.70;44.70;;;;;;1566146;75;682;-55
2021/06/28 00:22:51;;;;;;;;;;;25.70;44.70;;;;;;1573260;75;1149;-55
2021/06/28 00:24:53;;;;;;;;;;;25.70;44.70;;;;;;1562326;75;777;-55
2021/06/28 00:26:54;;;;;;;;;;;25.70;44.60;;;;;;1564084;75;873;-56
2021/06/28 00:28:56;;;;;;;;;;;25.70;44.50;;;;;;1560190;74;756;-55
2021/06/28 00:30:58;;;;;;;;;;;25.70;44.50;;;;;;1556017;75;1159;-55
2021/06/28 00:33:00;;;;;;;;;;;25.70;44.40;;;;;;1563489;75;794;-56
2021/06/28 00:35:02;;;;;;;;;;;25.70;44.40;;;;;;1562150;75;733;-56
2021/06/28 00:37:04;;;;;;;;;;;25.70;44.40;;;;;;1559672;75;674;-55
2021/06/28 00:39:06;;;;;;;;;;;25.70;44.40;;;;;;1558507;75;1943;-56
2021/06/28 00:41:08;;;;;;;;;;;25.70;44.50;;;;;;1550372;75;1177;-57
2021/06/28 00:43:10;;;;;;;;;;;25.70;44.60;;;;;;1562846;74;772;-56
2021/06/28 00:45:16;;;;;;;;;;;25.60;44.60;;;;;;1562304;75;723;-56
2021/06/28 00:47:22;;;;;;;;;;;25.70;44.70;;;;;;1547452;75;1178;-54
2021/06/28 00:49:34;;;;;;;;;;;25.70;44.80;;;;;;1567736;74;751;-56
2021/06/28 00:51:40;;;;;;;;;;;25.70;44.80;;;;;;1560465;74;1609;-55
2021/06/28 00:53:43;;;;;;;;;;;25.60;44.80;;;;;;1552983;75;711;-55
2021/06/28 00:55:45;;;;;;;;;;;25.60;44.80;;;;;;1566954;75;772;-55
2021/06/28 00:57:46;;;;;;;;;;;25.60;44.80;;;;;;1571447;74;1950;-56
2021/06/28 00:59:48;;;;;;;;;;;25.60;44.90;;;;;;1561654;75;692;-57
2021/06/28 01:01:50;;;;;;;;;;;25.60;44.90;;;;;;1564261;75;1151;-57
2021/06/28 01:03:52;;;;;;;;;;;25.70;44.90;;;;;;1558935;75;679;-56
2021/06/28 01:05:54;;;;;;;;;;;25.60;45.00;;;;;;1563552;75;724;-57
2021/06/28 01:07:56;;;;;;;;;;;25.70;45.00;;;;;;1566944;75;674;-55
2021/06/28 01:09:58;;;;;;;;;;;25.70;45.00;;;;;;1566915;74;705;-56
2021/06/28 01:11:59;;;;;;;;;;;25.70;45.00;;;;;;1550342;75;1191;-54
2021/06/28 01:14:01;;;;;;;;;;;25.60;45.00;;;;;;1564190;74;794;-57
2021/06/28 01:16:03;;;;;;;;;;;25.60;45.00;;;;;;1567806;74;756;-57
2021/06/28 01:18:05;;;;;;;;;;;25.60;45.00;;;;;;1576734;75;1921;-56
2021/06/28 01:20:08;;;;;;;;;;;25.70;45.00;;;;;;1565203;75;706;-54
2021/06/28 01:22:10;;;;;;;;;;;25.70;45.00;;;;;;1568995;74;1166;-55
2021/06/28 01:24:12;;;;;;;;;;;25.70;45.00;;;;;;1561233;75;646;-56
2021/06/28 01:26:14;;;;;;;;;;;25.70;45.20;;;;;;1568928;75;811;-58
2021/06/28 01:28:16;;;;;;;;;;;25.70;45.20;;;;;;1555153;75;823;-54
2021/06/28 01:30:20;;;;;;;;;;;25.70;45.20;;;;;;1577952;74;741;-56
2021/06/28 01:32:22;;;;;;;;;;;25.60;45.20;;;;;;1558517;75;1570;-56
2021/06/28 01:34:24;;;;;;;;;;;25.70;45.30;;;;;;1573289;74;709;-56
2021/06/28 01:36:26;;;;;;;;;;;25.70;45.20;;;;;;1564284;75;760;-55
2021/06/28 01:38:28;;;;;;;;;;;25.60;45.20;;;;;;1573236;74;1952;-56
2021/06/28 01:40:30;;;;;;;;;;;25.60;45.20;;;;;;1565380;75;634;-55
2021/06/28 01:42:32;;;;;;;;;;;25.60;45.20;;;;;;1564751;75;1133;-55
2021/06/28 01:44:34;;;;;;;;;;;25.70;45.20;;;;;;1563062;74;820;-54
2021/06/28 01:46:36;;;;;;;;;;;25.60;45.20;;;;;;1559865;75;802;-54
2021/06/28 01:48:39;;;;;;;;;;;25.60;45.20;;;;;;1573093;75;778;-55
2021/06/28 01:50:41;;;;;;;;;;;25.60;45.30;;;;;;1569026;75;801;-56
2021/06/28 01:52:43;;;;;;;;;;;25.60;45.20;;;;;;1562089;75;1148;-55
2021/06/28 01:54:45;;;;;;;;;;;25.60;45.20;;;;;;1563454;74;743;-56
2021/06/28 01:56:47;;;;;;;;;;;25.70;45.20;;;;;;1563612;75;706;-56
2021/06/28 01:58:49;;;;;;;;;;;25.60;45.30;;;;;;1560649;75;1948;-55
2021/06/28 02:00:52;;;;;;;;;;;25.70;45.30;;;;;;1572414;75;709;-57
2021/06/28 02:03:01;;;;;;;;;;;25.70;45.30;;;;;;1563199;75;813;-56
2021/06/28 02:05:04;;;;;;;;;;;25.70;45.40;;;;;;1546277;75;971;-56
2021/06/28 02:07:07;;;;;;;;;;;25.60;45.50;;;;;;1564261;75;718;-57
2021/06/28 02:09:09;;;;;;;;;;;25.60;45.50;;;;;;1562718;74;672;-55
2021/06/28 02:11:11;;;;;;;;;;;25.60;45.50;;;;;;1556456;75;1148;-56
2021/06/28 02:13:13;;;;;;;;;;;25.70;45.50;;;;;;1564895;75;659;-56
2021/06/28 02:15:22;;;;;;;;;;;25.70;45.50;;;;;;1559901;75;774;-56
2021/06/28 02:17:23;;;;;;;;;;;25.60;45.60;;;;;;1564793;75;1086;-56
2021/06/28 02:19:26;;;;;;;;;;;25.60;45.60;;;;;;1548190;74;1954;-55
2021/06/28 02:21:27;;;;;;;;;;;25.70;45.70;;;;;;1526070;75;1135;-56
2021/06/28 02:23:30;;;;;;;;;;;25.50;45.70;;;;;;1556760;75;717;-54
2021/06/28 02:25:32;;;;;;;;;;;25.70;45.70;;;;;;1561385;75;715;-53
2021/06/28 02:27:34;;;;;;;;;;;25.60;45.70;;;;;;1548048;75;782;-54
2021/06/28 02:29:36;;;;;;;;;;;25.60;45.70;;;;;;1540185;75;752;-54
2021/06/28 02:31:38;;;;;;;;;;;25.70;45.60;;;;;;1558522;75;1150;-54
2021/06/28 02:33:40;;;;;;;;;;;25.60;45.70;;;;;;1552768;75;721;-53
2021/06/28 02:35:42;;;;;;;;;;;25.60;45.70;;;;;;1549613;75;793;-54
2021/06/28 02:37:44;;;;;;;;;;;25.70;45.70;;;;;;1553165;75;766;-55
2021/06/28 02:39:46;;;;;;;;;;;25.60;45.70;;;;;;1549774;75;1942;-54
2021/06/28 02:41:48;;;;;;;;;;;25.70;45.70;;;;;;1544553;75;1176;-56
2021/06/28 02:43:50;;;;;;;;;;;25.70;45.70;;;;;;1560447;75;751;-55
2021/06/28 02:45:52;;;;;;;;;;;25.70;45.70;;;;;;1558394;75;718;-54
2021/06/28 02:47:54;;;;;;;;;;;25.70;45.70;;;;;;1551199;75;786;-54
2021/06/28 02:49:56;;;;;;;;;;;25.60;45.70;;;;;;1562814;75;736;-56
2021/06/28 02:51:57;;;;;;;;;;;25.60;45.70;;;;;;1562691;75;1192;-55
2021/06/28 02:53:59;;;;;;;;;;;25.60;45.70;;;;;;1558588;75;707;-55
2021/06/28 02:56:14;;;;;;;;;;;25.70;45.70;;;;;;1540210;75;716;-57
2021/06/28 02:58:16;;;;;;;;;;;25.70;45.70;;;;;;1558835;75;1916;-56
2021/06/28 03:00:18;;;;;;;;;;;25.60;45.70;;;;;;1566543;75;807;-55
2021/06/28 03:02:20;;;;;;;;;;;25.60;45.70;;;;;;1572063;74;1251;-58
2021/06/28 03:04:21;;;;;;;;;;;25.60;45.60;;;;;;1573063;74;719;-56
2021/06/28 03:06:23;;;;;;;;;;;25.50;45.60;;;;;;1567905;75;719;-55
2021/06/28 03:08:25;;;;;;;;;;;25.60;45.60;;;;;;1568343;75;689;-55
2021/06/28 03:10:27;;;;;;;;;;;25.50;45.60;;;;;;1567309;74;718;-55
2021/06/28 03:12:29;;;;;;;;;;;25.60;45.60;;;;;;1571199;74;1139;-55
2021/06/28 03:14:31;;;;;;;;;;;25.50;45.60;;;;;;1567634;75;754;-55
2021/06/28 03:16:33;;;;;;;;;;;25.50;45.60;;;;;;1555498;75;787;-56
2021/06/28 03:18:35;;;;;;;;;;;25.60;45.60;;;;;;1559380;75;1940;-55
2021/06/28 03:20:36;;;;;;;;;;;25.60;45.60;;;;;;1554567;75;737;-55
2021/06/28 03:22:39;;;;;;;;;;;25.50;45.60;;;;;;1553341;75;1135;-56
2021/06/28 03:24:41;;;;;;;;;;;25.60;45.70;;;;;;1556869;75;629;-55
2021/06/28 03:26:42;;;;;;;;;;;25.50;45.70;;;;;;1559332;75;791;-55
2021/06/28 03:28:44;;;;;;;;;;;25.50;45.70;;;;;;1552039;75;765;-55
2021/06/28 03:30:46;;;;;;;;;;;25.60;45.60;;;;;;1557572;75;716;-55
2021/06/28 03:32:48;;;;;;;;;;;25.50;45.70;;;;;;1559168;74;1081;-56
2021/06/28 03:34:51;;;;;;;;;;;25.60;45.70;;;;;;1553096;75;746;-55
2021/06/28 03:36:53;;;;;;;;;;;25.50;45.70;;;;;;1547632;75;777;-55
2021/06/28 03:38:55;;;;;;;;;;;25.60;45.70;;;;;;1553487;75;1940;-56
2021/06/28 03:40:56;;;;;;;;;;;25.60;45.70;;;;;;1558261;74;1179;-55
2021/06/28 03:43:00;;;;;;;;;;;25.50;45.70;;;;;;1546594;75;709;-56
2021/06/28 03:45:04;;;;;;;;;;;25.50;45.70;;;;;;1555080;75;1757;-56
2021/06/28 03:47:06;;;;;;;;;;;25.60;45.70;;;;;;1556011;75;1650;-55
2021/06/28 03:49:08;;;;;;;;;;;25.50;45.70;;;;;;1554718;74;731;-55
2021/06/28 03:51:09;;;;;;;;;;;25.50;45.70;;;;;;1558702;74;1211;-54
2021/06/28 03:53:11;;;;;;;;;;;25.50;45.80;;;;;;1555864;75;678;-55
2021/06/28 03:55:13;;;;;;;;;;;25.50;45.70;;;;;;1551257;75;763;-55
2021/06/28 03:57:15;;;;;;;;;;;25.50;45.70;;;;;;1561945;75;769;-55
2021/06/28 03:59:17;;;;;;;;;;;25.60;45.70;;;;;;1554417;75;1943;-54
2021/06/28 04:01:19;;;;;;;;;;;25.70;45.70;;;;;;1554133;75;1149;-54
2021/06/28 04:03:25;;;;;;;;;;;25.70;45.70;;;;;;1547658;74;814;-55
2021/06/28 04:05:25;;;;;;;;;;;25.60;45.70;;;;;;1549399;75;1644;-55
2021/06/28 04:07:27;;;;;;;;;;;25.60;45.80;;;;;;1551725;75;899;-55
2021/06/28 04:09:29;;;;;;;;;;;25.60;45.80;;;;;;1551394;75;778;-54
2021/06/28 04:11:31;;;;;;;;;;;25.60;45.90;;;;;;1550909;75;1145;-55
2021/06/28 04:13:33;;;;;;;;;;;25.60;46.00;;;;;;1537794;75;743;-54
2021/06/28 04:15:35;;;;;;;;;;;25.60;46.00;;;;;;1545796;75;709;-55
2021/06/28 04:17:40;;;;;;;;;;;25.60;46.10;;;;;;1553171;75;842;-55
2021/06/28 04:19:42;;;;;;;;;;;25.60;46.10;;;;;;1553933;75;1922;-55
2021/06/28 04:21:44;;;;;;;;;;;25.60;46.10;;;;;;1545400;75;1172;-55
2021/06/28 04:23:45;;;;;;;;;;;25.60;46.10;;;;;;1554633;75;705;-55
2021/06/28 04:25:47;;;;;;;;;;;25.50;46.10;;;;;;1554146;75;704;-56
2021/06/28 04:27:50;;;;;;;;;;;25.60;46.10;;;;;;1560321;75;739;-58
2021/06/28 04:29:52;;;;;;;;;;;25.60;46.20;;;;;;1552557;75;734;-55
2021/06/28 04:31:54;;;;;;;;;;;25.60;46.10;;;;;;1551247;74;1163;-56
2021/06/28 04:33:56;;;;;;;;;;;25.60;46.10;;;;;;1552372;75;747;-56
2021/06/28 04:35:58;;;;;;;;;;;25.60;46.20;;;;;;1558738;75;740;-56
2021/06/28 04:38:00;;;;;;;;;;;25.60;46.10;;;;;;1553630;74;710;-55
2021/06/28 04:40:05;;;;;;;;;;;25.60;46.20;;;;;;1555555;75;1941;-56
2021/06/28 04:42:08;;;;;;;;;;;25.60;46.20;;;;;;1547361;75;1129;-57
2021/06/28 04:44:10;;;;;;;;;;;25.70;46.20;;;;;;1548449;75;814;-55
2021/06/28 04:46:11;;;;;;;;;;;25.60;46.30;;;;;;1553574;75;687;-56
2021/06/28 04:48:15;;;;;;;;;;;25.70;46.30;;;;;;1559033;75;751;-56
2021/06/28 04:50:17;;;;;;;;;;;25.70;46.30;;;;;;1543083;75;687;-55
2021/06/28 04:52:19;;;;;;;;;;;25.60;46.30;;;;;;1557747;75;1168;-55
2021/06/28 04:54:20;;;;;;;;;;;25.70;46.30;;;;;;1548639;75;741;-55
2021/06/28 04:56:22;;;;;;;;;;;25.70;46.30;;;;;;1550144;75;587;-55
2021/06/28 04:58:24;;;;;;;;;;;25.70;46.30;;;;;;1558485;74;664;-55
2021/06/28 05:00:26;;;;;;;;;;;25.70;46.50;;;;;;1551954;75;1938;-56
2021/06/28 05:02:28;;;;;;;;;;;25.70;46.30;;;;;;1552559;75;1112;-57
2021/06/28 05:04:30;;;;;;;;;;;25.60;46.40;;;;;;1552582;75;658;-56
2021/06/28 05:06:32;;;;;;;;;;;25.70;46.40;;;;;;1557697;75;718;-57
2021/06/28 05:08:34;;;;;;;;;;;25.70;46.50;;;;;;1555857;75;704;-54
2021/06/28 05:10:35;;;;;;;;;;;25.70;46.40;;;;;;1545410;75;716;-55
2021/06/28 05:12:37;;;;;;;;;;;25.70;46.50;;;;;;1560162;74;1045;-55
2021/06/28 05:14:40;;;;;;;;;;;25.70;46.50;;;;;;1571449;73;3112;-57
2021/06/28 05:16:42;;;;;;;;;;;25.70;46.50;;;;;;1598705;73;740;-61
2021/06/28 05:18:43;;;;;;;;;;;25.70;46.50;;;;;;1589758;73;760;-59
2021/06/28 05:20:45;;;;;;;;;;;25.70;46.50;;;;;;1598878;73;1945;-58
2021/06/28 05:22:47;;;;;;;;;;;25.70;46.60;;;;;;1580965;73;1147;-58
2021/06/28 05:24:49;;;;;;;;;;;25.70;46.50;;;;;;1607416;73;743;-58
2021/06/28 05:26:51;;;;;;;;;;;25.70;46.60;;;;;;1607944;73;763;-55
2021/06/28 05:28:53;;;;;;;;;;;25.70;46.50;;;;;;1606303;73;834;-61
2021/06/28 05:30:55;;;;;;;;;;;25.70;46.60;;;;;;1608288;72;1141;-60
2021/06/28 05:32:57;;;;;;;;;;;25.70;46.80;;;;;;1608740;73;728;-61
2021/06/28 05:34:58;;;;;;;;;;;25.70;46.70;;;;;;1605891;73;727;-58
2021/06/28 05:37:00;;;;;;;;;;;25.70;46.70;;;;;;1612172;73;758;-58
2021/06/28 05:39:03;;;;;;;;;;;25.70;46.60;;;;;;1601799;73;1938;-58
2021/06/28 05:41:05;;;;;;;;;;;25.70;46.70;;;;;;1602002;73;1177;-60
2021/06/28 05:43:07;;;;;;;;;;;25.70;46.50;;;;;;1602745;73;710;-59
2021/06/28 05:45:09;;;;;;;;;;;25.70;46.90;;;;;;1603612;73;726;-59
2021/06/28 05:47:14;;;;;;;;;;;25.70;46.90;;;;;;1599313;73;724;-60
2021/06/28 05:49:16;;;;;;;;;;;25.70;46.90;;;;;;1573191;74;672;-60
2021/06/28 05:51:19;;;;;;;;;;;25.70;46.80;;;;;;1606433;72;1117;-58
2021/06/28 05:53:20;;;;;;;;;;;25.80;46.60;;;;;;1600427;73;747;-60
2021/06/28 05:55:22;;;;;;;;;;;25.80;46.50;;;;;;1596796;73;778;-59
2021/06/28 05:57:25;;;;;;;;;;;25.70;46.50;;;;;;1599998;73;701;-60
2021/06/28 05:59:26;;;;;;;;;;;25.70;46.60;;;;;;1602109;73;1896;-60
2021/06/28 06:01:28;;;;;;;;;;;25.70;47.10;;;;;;1606551;73;1122;-61
2021/06/28 06:03:30;;;;;;;;;;;25.60;47.20;;;;;;1608564;73;766;-59
2021/06/28 06:05:32;;;;;;;;;;;25.70;47.30;;;;;;1599440;73;705;-59
2021/06/28 06:07:35;;;;;;;;;;;25.70;47.30;;;;;;1604250;73;791;-58
2021/06/28 06:09:37;;;;;;;;;;;25.70;47.60;;;;;;1604993;73;762;-58
2021/06/28 06:11:39;;;;;;;;;;;25.70;47.70;;;;;;1608824;72;1129;-60
2021/06/28 06:13:41;;;;;;;;;;;25.80;47.80;;;;;;1604611;73;714;-58
2021/06/28 06:15:43;;;;;;;;;;;25.70;47.70;;;;;;1603869;73;730;-59
2021/06/28 06:17:45;;;;;;;;;;;25.70;47.40;;;;;;1601654;73;717;-58
2021/06/28 06:19:47;;;;;;;;;;;25.70;47.70;;;;;;1586229;74;1916;-60
2021/06/28 06:21:49;;;;;;;;;;;25.70;47.80;;;;;;1600831;73;1093;-57
2021/06/28 06:23:51;;;;;;;;;;;25.80;47.60;;;;;;1595673;73;865;-57
2021/06/28 06:25:53;;;;;;;;;;;25.80;47.30;;;;;;1565192;74;706;-57
2021/06/28 06:27:54;;;;;;;;;;;25.70;47.50;;;;;;1569156;75;755;-59
2021/06/28 06:29:57;;;;;;;;;;;25.70;47.30;;;;;;1572079;73;764;-60
2021/06/28 06:31:59;;;;;;;;;;;25.80;47.40;;;;;;1558831;74;1141;-60
2021/06/28 06:34:01;;;;;;;;;;;25.80;47.30;;;;;;1576030;74;745;-59
2021/06/28 06:36:03;;;;;;;;;;;25.80;47.60;;;;;;1570609;75;724;-60
2021/06/28 06:38:05;;;;;;;;;;;25.70;47.60;;;;;;1559318;75;774;-60
2021/06/28 06:40:07;;;;;;;;;;;25.70;47.90;;;;;;1595551;74;1931;-60
2021/06/28 06:42:09;;;;;;;;;;;25.70;47.70;;;;;;1560458;74;1073;-59
2021/06/28 06:44:11;;;;;;;;;;;25.80;47.70;;;;;;1583141;73;789;-59
2021/06/28 06:46:12;;;;;;;;;;;25.70;47.80;;;;;;1604705;73;764;-58
2021/06/28 06:48:14;;;;;;;;;;;25.80;47.80;;;;;;1602472;73;695;-57
2021/06/28 06:50:16;;;;;;;;;;;25.80;47.60;;;;;;1596337;73;742;-56
2021/06/28 06:52:18;;;;;;;;;;;25.80;47.60;;;;;;1603905;73;1130;-55
2021/06/28 06:54:20;;;;;;;;;;;25.80;47.60;;;;;;1603815;73;783;-58
2021/06/28 06:56:22;;;;;;;;;;;25.70;47.60;;;;;;1583688;73;781;-58
2021/06/28 06:58:24;;;;;;;;;;;25.70;47.80;;;;;;1571063;73;794;-58
2021/06/28 07:00:26;;;;;;;;;;;25.70;47.90;;;;;;1573990;73;1934;-60
2021/06/28 07:02:28;;;;;;;;;;;25.70;47.90;;;;;;1572492;73;1131;-59
2021/06/28 07:04:30;;;;;;;;;;;25.70;48.60;;;;;;1578701;73;815;-58
2021/06/28 07:06:32;;;;;;;;;;;25.70;48.90;;;;;;1569496;73;779;-58
2021/06/28 07:08:35;;;;;;;;;;;25.70;48.90;;;;;;1571566;73;769;-57
2021/06/28 07:10:37;;;;;;;;;;;25.70;48.40;;;;;;1579003;73;705;-61
2021/06/28 07:12:39;;;;;;;;;;;25.70;48.20;;;;;;1581106;73;1128;-61
2021/06/28 07:14:40;;;;;;;;;;;25.80;48.20;;;;;;1590063;74;747;-59
2021/06/28 07:16:42;;;;;;;;;;;25.90;47.90;;;;;;1582606;73;728;-57
2021/06/28 07:18:45;;;;;;;;;;;25.80;47.80;;;;;;1591566;73;694;-58
2021/06/28 07:20:47;;;;;;;;;;;25.80;47.80;;;;;;1588014;73;1928;-59
2021/06/28 07:22:49;;;;;;;;;;;25.90;47.70;;;;;;1582772;74;1096;-59
2021/06/28 07:24:51;;;;;;;;;;;25.90;47.70;;;;;;1591227;73;811;-57
2021/06/28 07:26:53;;;;;;;;;;;25.90;47.80;;;;;;1588212;73;675;-56
2021/06/28 07:28:55;;;;;;;;;;;25.80;47.70;;;;;;1580982;73;816;-59
2021/06/28 07:31:00;;;;;;;;;;;25.90;47.80;;;;;;1590878;73;1107;-58
2021/06/28 07:33:02;;;;;;;;;;;25.90;48.10;;;;;;1597946;73;925;-58
2021/06/28 07:35:04;;;;;;;;;;;25.90;48.00;;;;;;1591058;73;706;-58
2021/06/28 07:37:06;;;;;;;;;;;25.90;47.80;;;;;;1594502;73;619;-56
2021/06/28 07:39:08;;;;;;;;;;;25.90;47.70;;;;;;1592173;73;713;-59
2021/06/28 07:41:10;;;;;;;;;;;25.90;47.60;;;;;;1584843;73;1932;-58
2021/06/28 07:43:12;;;;;;;;;;;25.90;47.60;;;;;;1596475;73;744;-57
2021/06/28 07:45:14;;;;;;;;;;;25.90;47.50;;;;;;1588700;73;640;-57
2021/06/28 07:47:16;;;;;;;;;;;26.00;48.00;;;;;;1597702;73;656;-56
2021/06/28 07:49:18;;;;;;;;;;;25.90;47.40;;;;;;1595657;73;790;-54
2021/06/28 07:51:20;;;;;;;;;;;25.90;47.60;;;;;;1596332;73;1149;-58
2021/06/28 07:53:21;;;;;;;;;;;25.90;47.50;;;;;;1593900;73;775;-57
2021/06/28 07:55:23;;;;;;;;;;;25.90;47.50;;;;;;1591819;73;718;-57
2021/06/28 07:57:26;;;;;;;;;;;25.90;47.50;;;;;;1594412;73;788;-58
2021/06/28 07:59:27;;;;;;;;;;;25.90;47.30;;;;;;1591361;73;832;-59
2021/06/28 08:01:29;;;;;;;;;;;25.90;47.30;;;;;;1598598;73;2250;-59
2021/06/28 08:03:31;;;;;;;;;;;25.90;47.30;;;;;;1597395;73;790;-58
2021/06/28 08:05:34;;;;;;;;;;;25.90;47.30;;;;;;1592016;73;717;-56
2021/06/28 08:07:36;;;;;;;;;;;25.90;47.50;;;;;;1596883;73;661;-58
2021/06/28 08:09:38;;;;;;;;;;;25.90;47.60;;;;;;1595648;73;802;-57
2021/06/28 08:11:40;;;;;;;;;;;25.90;47.60;;;;;;1590412;73;1168;-58
2021/06/28 08:13:43;;;;;;;;;;;25.90;47.60;;;;;;1591861;73;715;-57
2021/06/28 08:15:45;;;;;;;;;;;26.00;48.30;;;;;;1593297;73;807;-58
2021/06/28 08:17:48;;;;;;;;;;;25.90;47.80;;;;;;1608086;73;699;-58
2021/06/28 08:19:50;;;;;;;;;;;25.90;47.80;;;;;;1587376;73;1953;-59
2021/06/28 08:21:54;;;;;;;;;;;25.80;48.10;;;;;;1606091;72;1945;-56
2021/06/28 08:23:56;;;;;;;;;;;25.90;48.40;;;;;;1613220;73;678;-56
2021/06/28 08:25:58;;;;;;;;;;;25.90;48.30;;;;;;1616388;73;721;-58
2021/06/28 08:28:00;;;;;;;;;;;25.90;48.40;;;;;;1594728;74;723;-59
2021/06/28 08:30:02;;;;;;;;;;;25.90;48.40;;;;;;1579140;74;718;-58
2021/06/28 08:32:04;;;;;;;;;;;26.00;48.90;;;;;;1575301;74;1157;-55
2021/06/28 08:34:06;;;;;;;;;;;26.00;48.70;;;;;;1580470;74;701;-59
2021/06/28 08:36:08;;;;;;;;;;;25.90;48.40;;;;;;1584150;74;778;-60
2021/06/28 08:38:10;;;;;;;;;;;26.00;49.00;;;;;;1575157;74;724;-59
2021/06/28 08:40:12;;;;;;;;;;;26.00;49.00;;;;;;1593434;74;1945;-59
2021/06/28 08:42:14;;;;;;;;;;;25.90;48.60;;;;;;1579127;74;1160;-55
2021/06/28 08:44:16;;;;;;;;;;;25.90;48.80;;;;;;1557589;75;717;-57
2021/06/28 08:46:18;;;;;;;;;;;25.90;48.70;;;;;;1581311;74;756;-59
2021/06/28 08:48:19;;;;;;;;;;;26.00;49.30;;;;;;1578499;74;723;-57
2021/06/28 08:50:21;;;;;;;;;;;25.90;48.60;;;;;;1587242;74;783;-56
2021/06/28 08:52:23;;;;;;;;;;;26.00;49.00;;;;;;1588368;74;1181;-60
2021/06/28 08:54:25;;;;;;;;;;;26.00;48.90;;;;;;1588664;74;703;-58
2021/06/28 08:56:27;;;;;;;;;;;26.00;48.70;;;;;;1584768;74;834;-56
2021/06/28 08:58:29;;;;;;;;;;;26.00;48.70;;;;;;1589220;74;753;-56
2021/06/28 09:00:31;;;;;;;;;;;26.00;48.60;;;;;;1567110;74;1929;-57
2021/06/28 09:02:33;;;;;;;;;;;26.00;48.60;;;;;;1585419;73;1137;-57
2021/06/28 09:04:35;;;;;;;;;;;26.00;48.50;;;;;;1574633;74;752;-56
2021/06/28 09:06:37;;;;;;;;;;;26.00;48.50;;;;;;1584908;74;734;-55
2021/06/28 09:08:39;;;;;;;;;;;26.00;48.30;;;;;;1579239;74;863;-55
2021/06/28 09:10:42;;;;;;;;;;;26.00;48.40;;;;;;1584862;74;690;-57
2021/06/28 09:12:50;;;;;;;;;;;25.90;47.90;;;;;;1580734;73;1016;-58
2021/06/28 09:14:54;;;;;;;;;;;25.90;47.90;;;;;;1580575;74;741;-57
2021/06/28 09:16:56;;;;;;;;;;;25.90;48.00;;;;;;1579172;74;1042;-55
2021/06/28 09:19:01;;;;;;;;;;;25.90;47.90;;;;;;1578526;73;771;-57
2021/06/28 09:21:07;;;;;;;;;;;25.90;47.80;;;;;;1577512;73;1892;-58
2021/06/28 09:23:24;;;;;;;;;;;25.90;47.70;;;;;;1582079;74;761;-58
2021/06/28 09:25:30;;;;;;;;;;;26.00;48.20;;;;;;1576547;74;759;-55
2021/06/28 09:27:35;;;;;;;;;;;25.90;47.50;;;;;;1577929;74;700;-58
2021/06/28 09:29:36;;;;;;;;;;;25.90;47.30;;;;;;1577283;74;1161;-56
2021/06/28 09:31:39;;;;;;;;;;;26.00;47.80;;;;;;1579496;73;1179;-56
2021/06/28 09:33:41;;;;;;;;;;;26.00;47.60;;;;;;1572497;74;782;-58
2021/06/28 09:35:43;;;;;;;;;;;25.90;47.00;;;;;;1580164;74;921;-57
2021/06/28 09:37:45;;;;;;;;;;;26.00;47.60;;;;;;1580142;74;728;-56
2021/06/28 09:39:50;;;;;;;;;;;25.90;47.00;;;;;;1574391;74;718;-56
2021/06/28 09:41:58;;;;;;;;;;;25.90;46.90;;;;;;1580093;74;1920;-57
2021/06/28 09:44:01;;;;;;;;;;;25.90;47.10;;;;;;1574732;74;975;-57
2021/06/28 09:46:04;;;;;;;;;;;25.90;47.20;;;;;;1589632;74;1075;-58
2021/06/28 09:48:07;;;;;;;;;;;25.80;47.20;;;;;;1549338;75;1273;-57
2021/06/28 09:50:10;;;;;;;;;;;25.90;47.10;;;;;;1580855;74;1220;-55
2021/06/28 09:52:12;;;;;;;;;;;25.90;47.10;;;;;;1583253;74;1143;-57
2021/06/28 09:54:15;;;;;;;;;;;25.90;47.00;;;;;;1569118;75;1381;-57
2021/06/28 09:56:36;;;;;;;;;;;25.90;47.00;;;;;;1571564;74;626;-58
2021/06/28 09:58:38;;;;;;;;;;;25.90;47.00;;;;;;1585617;74;758;-57
2021/06/28 10:00:41;;;;;;;;;;;25.90;46.90;;;;;;1597227;73;1930;-55
2021/06/28 10:02:43;;;;;;;;;;;25.80;47.00;;;;;;1583841;73;1066;-58
2021/06/28 10:04:48;;;;;;;;;;;25.90;47.00;;;;;;1587831;73;684;-58
2021/06/28 10:06:56;;;;;;;;;;;25.80;46.50;;;;;;1583723;74;1491;-57
2021/06/28 10:08:55;;;;;;;;;;;25.90;46.70;;;;;;1578832;74;1687;-59
2021/06/28 10:10:58;;;;;;;;;;;25.80;45.80;;;;;;1579891;74;1123;-58
2021/06/28 10:13:01;;;;;;;;;;;25.90;46.10;;;;;;1587046;74;1927;-58
2021/06/28 10:15:04;;;;;;;;;;;25.90;46.20;;;;;;1595647;73;766;-58
2021/06/28 10:17:06;;;;;;;;;;;25.90;46.30;;;;;;1589841;73;786;-56
2021/06/28 10:19:08;;;;;;;;;;;25.90;46.00;;;;;;1583530;73;774;-56
2021/06/28 10:21:10;;;;;;;;;;;25.90;45.90;;;;;;1583528;73;1950;-57
2021/06/28 10:23:12;;;;;;;;;;;25.90;45.50;;;;;;1578702;73;814;-56
2021/06/28 10:25:15;;;;;;;;;;;26.00;46.30;;;;;;1582129;73;844;-59
2021/06/28 10:27:16;;;;;;;;;;;26.00;46.20;;;;;;1604982;73;729;-58
2021/06/28 10:29:18;;;;;;;;;;;26.00;46.00;;;;;;1598338;73;740;-58
2021/06/28 10:31:20;;;;;;;;;;;25.90;45.50;;;;;;1591856;73;1165;-56
2021/06/28 10:33:23;;;;;;;;;;;26.00;45.90;;;;;;1583172;73;906;-59
2021/06/28 10:35:26;;;;;;;;;;;26.00;45.10;;;;;;1582294;73;789;-55
2021/06/28 10:37:45;;;;;;;;;;;26.00;45.20;;;;;;1577791;73;1850;-58
2021/06/28 10:39:49;;;;;;;;;;;26.00;44.60;;;;;;1579709;73;762;-59
2021/06/28 10:41:52;;;;;;;;;;;26.00;44.20;;;;;;1585248;73;1923;-57
2021/06/28 10:43:54;;;;;;;;;;;25.90;43.20;;;;;;1598517;73;694;-59
2021/06/28 10:45:56;;;;;;;;;;;26.00;43.90;;;;;;1590751;73;795;-56
2021/06/28 10:48:15;;;;;;;;;;;26.00;44.20;;;;;;1583731;73;811;-58
2021/06/28 10:50:17;;;;;;;;;;;26.00;44.50;;;;;;1590694;73;761;-55
2021/06/28 10:52:29;;;;;;;;;;;26.00;44.20;;;;;;1561594;75;1273;-59
2021/06/28 10:54:34;;;;;;;;;;;26.00;43.80;;;;;;1561399;74;1104;-58
2021/06/28 10:56:38;;;;;;;;;;;26.10;43.60;;;;;;1584984;73;794;-58
2021/06/28 10:58:40;;;;;;;;;;;26.00;43.50;;;;;;1578771;73;702;-56
2021/06/28 11:00:56;;;;;;;;;;;26.00;43.40;;;;;;1550271;74;987;-56
2021/06/28 11:02:57;;;;;;;;;;;26.10;43.40;;;;;;1529588;73;1021;-55
2021/06/28 11:04:59;;;;;;;;;;;26.00;43.00;;;;;;1587654;73;697;-58
2021/06/28 11:07:03;;;;;;;;;;;26.10;42.70;;;;;;1598349;73;708;-55
2021/06/28 11:09:06;;;;;;;;;;;26.00;42.30;;;;;;1585953;73;771;-55
2021/06/28 11:11:08;;;;;;;;;;;26.00;41.70;;;;;;1586234;73;1134;-56
2021/06/28 11:13:27;;;;;;;;;;;26.10;41.70;;;;;;1595113;73;714;-57
2021/06/28 11:15:29;;;;;;;;;;;26.10;41.10;;;;;;1615869;72;219642;-67
2021/06/28 11:17:46;;;;;;;;;;;26.10;40.80;;;;;;1608042;73;1260;-66
2021/06/28 11:19:58;;;;;;;;;;;26.10;41.00;;;;;;1617848;72;669;-68
2021/06/28 11:21:56;;;;;;;;;;;26.10;41.00;;;;;;1626148;72;1908;-67
2021/06/28 11:23:59;;;;;;;;;;;26.20;41.00;;;;;;1575036;73;1179;-67
2021/06/28 11:26:01;;;;;;;;;;;26.20;41.40;;;;;;1531264;75;674;-67
2021/06/28 11:28:04;;;;;;;;;;;26.20;41.50;;;;;;1549539;76;814;-66
2021/06/28 11:30:08;;;;;;;;;;;26.20;41.80;;;;;;1581892;75;655;-67
2021/06/28 11:32:22;;;;;;;;;;;26.20;41.80;;;;;;1581270;75;1871;-68
2021/06/28 11:34:43;;;;;;;;;;;26.20;41.70;;;;;;1547879;75;1185;-70
2021/06/28 11:36:45;;;;;;;;;;;26.20;41.60;;;;;;1541343;75;725;-68
2021/06/28 11:38:46;;;;;;;;;;;26.20;41.50;;;;;;1579616;75;732;-69
2021/06/28 11:40:51;;;;;;;;;;;26.20;41.20;;;;;;1577259;75;943;-68
2021/06/28 11:43:03;;;;;;;;;;;26.20;41.30;;;;;;1579695;74;1919;-68
2021/06/28 11:45:06;;;;;;;;;;;26.20;41.40;;;;;;1543523;75;1133;-68
2021/06/28 11:47:08;;;;;;;;;;;26.20;41.80;;;;;;1544945;75;699;-68
2021/06/28 11:49:12;;;;;;;;;;;26.20;41.90;;;;;;1561120;75;789;-68
2021/06/28 11:51:15;;;;;;;;;;;26.20;41.00;;;;;;1540490;75;738;-68
2021/06/28 11:53:19;;;;;;;;;;;26.20;41.50;;;;;;1545050;76;683;-68
2021/06/28 11:55:20;;;;;;;;;;;26.20;41.50;;;;;;1550128;75;1103;-68
2021/06/28 11:57:22;;;;;;;;;;;26.20;41.20;;;;;;1552090;76;714;-67
2021/06/28 11:59:25;;;;;;;;;;;26.30;41.50;;;;;;1584456;74;719;-68
2021/06/28 12:01:30;;;;;;;;;;;26.20;41.40;;;;;;1556056;75;1920;-67
2021/06/28 12:03:33;;;;;;;;;;;26.20;41.40;;;;;;1554113;75;1405;-71
2021/06/28 12:05:35;;;;;;;;;;;26.30;41.10;;;;;;1559327;75;1042;-68
2021/06/28 12:07:37;;;;;;;;;;;26.20;41.40;;;;;;1553786;74;636;-68
2021/06/28 12:09:45;;;;;;;;;;;26.20;41.70;;;;;;1561159;75;714;-69
2021/06/28 12:11:58;;;;;;;;;;;26.30;41.50;;;;;;1551371;75;1551;-69